createdAt,value
2022-10-13T00:01:13.973Z,101629.72
2022-10-13T00:03:47.036Z,101623.09
2022-10-13T00:06:19.423Z,101622.53
2022-10-13T00:08:47.039Z,101620.28
2022-10-13T00:11:18.818Z,101619.19
2022-10-13T00:13:47.777Z,101619.13
2022-10-13T00:16:20.086Z,101612.25
2022-10-13T00:18:47.728Z,101614.44
2022-10-13T00:21:20.473Z,101615.25
2022-10-13T00:23:48.213Z,101614.44
2022-10-13T00:26:18.186Z,101601.50
2022-10-13T00:28:49.788Z,101608.94
2022-10-13T00:31:25.630Z,101607.00
2022-10-13T00:33:53.148Z,101607.00
2022-10-13T00:36:23.350Z,101604.50
2022-10-13T00:38:52.399Z,101609.75
2022-10-13T00:41:21.131Z,101612.19
2022-10-13T00:44:04.159Z,101607.47
2022-10-13T00:46:37.289Z,101600.91
2022-10-13T00:49:15.160Z,101600.91
2022-10-13T00:51:50.255Z,101600.84
2022-10-13T00:54:25.462Z,101598.09
2022-10-13T00:56:54.735Z,101600.28
2022-10-13T00:59:29.360Z,101592.31
2022-10-13T01:02:00.974Z,101598.31
2022-10-13T01:04:39.877Z,101601.63
2022-10-13T01:07:07.464Z,101594.19
2022-10-13T01:09:42.379Z,101602.69
2022-10-13T01:12:29.547Z,101598.56
2022-10-13T01:15:41.690Z,101594.75
2022-10-13T01:18:51.347Z,101591.19
2022-10-13T01:22:29.625Z,101594.41
2022-10-13T01:25:58.434Z,101586.09
2022-10-13T01:29:11.851Z,101590.19
2022-10-13T01:32:25.748Z,101589.38
2022-10-13T01:35:16.362Z,101590.72
2022-10-13T01:37:53.063Z,101583.88
2022-10-13T01:40:34.544Z,101578.91
2022-10-13T01:43:29.796Z,101565.72
2022-10-13T01:46:12.437Z,101575.66
2022-10-13T01:48:45.576Z,101568.06
2022-10-13T01:51:22.800Z,101572.50
2022-10-13T01:53:51.556Z,101565.97
2022-10-13T01:56:18.732Z,101558.06
2022-10-13T01:58:50.907Z,101555.09
2022-10-13T02:01:47.531Z,101559.53
2022-10-13T02:04:46.657Z,101558.72
2022-10-13T02:07:25.970Z,101551.91
2022-10-13T02:10:07.375Z,101558.00
2022-10-13T02:12:44.519Z,101552.25
2022-10-13T02:15:23.274Z,101551.19
2022-10-13T02:17:52.765Z,101550.38
2022-10-13T02:20:22.378Z,101537.19
2022-10-13T02:23:02.692Z,101533.88
2022-10-13T02:25:33.572Z,101534.16
2022-10-13T02:28:02.740Z,101537.44
2022-10-13T02:30:33.283Z,101534.13
2022-10-13T02:33:03.177Z,101529.44
2022-10-13T02:35:31.090Z,101527.75
2022-10-13T02:37:58.015Z,101522.00
2022-10-13T02:40:26.266Z,101525.81
2022-10-13T02:42:53.863Z,101521.38
2022-10-13T02:45:21.151Z,101523.25
2022-10-13T02:47:48.135Z,101523.78
2022-10-13T02:50:15.658Z,101517.16
2022-10-13T02:52:42.769Z,101524.78
2022-10-13T02:55:10.596Z,101514.34
2022-10-13T02:57:37.500Z,101511.59
2022-10-13T03:00:08.005Z,101508.03
2022-10-13T03:02:35.227Z,101509.09
2022-10-13T03:05:02.249Z,101506.34
2022-10-13T03:07:29.194Z,101499.78
2022-10-13T03:09:56.458Z,101504.47
2022-10-13T03:12:23.863Z,101500.03
2022-10-13T03:14:50.964Z,101497.81
2022-10-13T03:17:18.530Z,101501.66
2022-10-13T03:19:45.598Z,101490.72
2022-10-13T03:22:15.427Z,101488.22
2022-10-13T03:24:43.257Z,101499.72
2022-10-13T03:27:10.883Z,101490.09
2022-10-13T03:29:37.954Z,101493.94
2022-10-13T03:32:05.240Z,101489.28
2022-10-13T03:34:32.242Z,101488.16
2022-10-13T03:36:59.263Z,101485.13
2022-10-13T03:39:26.411Z,101487.59
2022-10-13T03:41:53.340Z,101484.84
2022-10-13T03:44:20.419Z,101493.63
2022-10-13T03:46:47.424Z,101482.88
2022-10-13T03:49:14.514Z,101485.88
2022-10-13T03:51:41.572Z,101486.72
2022-10-13T03:54:12.984Z,101489.47
2022-10-13T03:56:41.281Z,101486.72
2022-10-13T03:59:11.114Z,101482.06
2022-10-13T04:01:38.077Z,101488.13
2022-10-13T04:04:05.568Z,101488.94
2022-10-13T04:06:32.532Z,101485.91
2022-10-13T04:08:59.477Z,101476.03
2022-10-13T04:11:26.582Z,101472.53
2022-10-13T04:13:53.570Z,101469.81
2022-10-13T04:16:26.148Z,101477.78
2022-10-13T04:19:05.030Z,101483.56
2022-10-13T04:21:34.921Z,101469.63
2022-10-13T04:24:03.467Z,101461.38
2022-10-13T04:26:35.608Z,101469.63
2022-10-13T04:29:06.783Z,101468.00
2022-10-13T04:31:35.848Z,101459.75
2022-10-13T04:34:03.092Z,101459.44
2022-10-13T04:36:30.394Z,101467.69
2022-10-13T04:38:57.451Z,101461.94
2022-10-13T04:41:24.499Z,101461.94
2022-10-13T04:43:54.408Z,101463.63
2022-10-13T04:46:27.042Z,101462.25
2022-10-13T04:48:55.572Z,101457.31
2022-10-13T04:51:26.412Z,101456.81
2022-10-13T04:54:02.062Z,101461.50
2022-10-13T04:56:29.241Z,101460.94
2022-10-13T04:58:56.283Z,101453.00
2022-10-13T05:01:25.816Z,101452.72
2022-10-13T05:04:00.236Z,101448.03
2022-10-13T05:06:35.737Z,101460.41
2022-10-13T05:09:04.063Z,101450.50
2022-10-13T05:11:32.687Z,101448.31
2022-10-13T05:14:01.851Z,101447.50
2022-10-13T05:16:31.064Z,101446.69
2022-10-13T05:18:58.184Z,101445.88
2022-10-13T05:21:29.718Z,101444.78
2022-10-13T05:23:58.451Z,101445.88
2022-10-13T05:26:32.029Z,101436.22
2022-10-13T05:29:02.275Z,101440.94
2022-10-13T05:31:32.595Z,101430.78
2022-10-13T05:34:00.892Z,101446.16
2022-10-13T05:36:33.315Z,101444.53
2022-10-13T05:39:06.039Z,101431.31
2022-10-13T05:41:33.974Z,101422.25
2022-10-13T05:44:07.163Z,101433.81
2022-10-13T05:46:34.364Z,101428.88
2022-10-13T05:49:01.449Z,101430.25
2022-10-13T05:51:41.947Z,101431.63
2022-10-13T05:54:15.228Z,101433.56
2022-10-13T05:56:57.133Z,101437.69
2022-10-13T05:59:32.612Z,101432.75
2022-10-13T06:02:03.192Z,101429.47
2022-10-13T06:04:49.255Z,101433.84
2022-10-13T06:07:17.537Z,101434.97
2022-10-13T06:09:44.919Z,101428.34
2022-10-13T06:12:15.485Z,101438.28
2022-10-13T06:14:42.397Z,101430.84
2022-10-13T06:17:09.322Z,101430.28
2022-10-13T06:19:36.587Z,101434.13
2022-10-13T06:22:03.991Z,101431.13
2022-10-13T06:24:31.724Z,101435.53
2022-10-13T06:26:58.799Z,101433.59
2022-10-13T06:29:25.825Z,101431.41
2022-10-13T06:31:52.794Z,101432.22
2022-10-13T06:34:19.733Z,101433.06
2022-10-13T06:36:47.271Z,101438.28
2022-10-13T06:39:14.554Z,101435.00
2022-10-13T06:41:41.500Z,101438.88
2022-10-13T06:44:08.460Z,101439.13
2022-10-13T06:46:35.403Z,101436.69
2022-10-13T06:49:02.373Z,101442.47
2022-10-13T06:51:29.351Z,101441.06
2022-10-13T06:53:57.625Z,101439.44
2022-10-13T06:56:24.734Z,101439.69
2022-10-13T06:58:51.678Z,101442.97
2022-10-13T07:01:18.713Z,101442.69
2022-10-13T07:03:52.187Z,101441.03
2022-10-13T07:06:19.577Z,101431.94
2022-10-13T07:08:46.774Z,101433.31
2022-10-13T07:11:16.680Z,101432.75
2022-10-13T07:13:46.840Z,101437.16
2022-10-13T07:16:15.463Z,101429.16
2022-10-13T07:18:42.747Z,101426.41
2022-10-13T07:21:09.982Z,101420.91
2022-10-13T07:23:36.933Z,101419.75
2022-10-13T07:26:14.556Z,101418.81
2022-10-13T07:28:44.100Z,101414.53
2022-10-13T07:31:18.214Z,101417.34
2022-10-13T07:33:51.102Z,101414.84
2022-10-13T07:36:19.545Z,101411.06
2022-10-13T07:38:47.319Z,101415.69
2022-10-13T07:41:15.996Z,101412.94
2022-10-13T07:43:43.422Z,101407.59
2022-10-13T07:46:15.445Z,101405.09
2022-10-13T07:48:42.490Z,101410.06
2022-10-13T07:51:13.735Z,101396.59
2022-10-13T07:53:43.162Z,101410.84
2022-10-13T07:56:15.602Z,101405.81
2022-10-13T07:58:47.449Z,101402.19
2022-10-13T08:01:16.882Z,101399.72
2022-10-13T08:03:48.976Z,101404.78
2022-10-13T08:06:17.841Z,101403.88
2022-10-13T08:08:44.826Z,101399.97
2022-10-13T08:11:17.352Z,101397.78
2022-10-13T08:13:52.243Z,101394.97
2022-10-13T08:16:19.617Z,101390.56
2022-10-13T08:18:48.732Z,101391.38
2022-10-13T08:24:12.613Z,101390.97
2022-10-13T08:26:41.224Z,101379.78
2022-10-13T08:29:24.327Z,101377.03
2022-10-13T08:31:56.211Z,101377.66
2022-10-13T08:34:26.096Z,101370.59
2022-10-13T08:36:56.461Z,101376.44
2022-10-13T08:39:25.315Z,101378.34
2022-10-13T08:41:55.467Z,101373.31
2022-10-13T08:47:48.496Z,101371.09
2022-10-13T08:50:24.119Z,101371.69
2022-10-13T08:53:00.572Z,101372.69
2022-10-13T08:55:46.623Z,101371.81
2022-10-13T08:58:32.421Z,101376.97
2022-10-13T09:01:18.263Z,101372.53
2022-10-13T09:04:23.902Z,101372.84
2022-10-13T09:07:40.870Z,101357.78
2022-10-13T09:10:10.192Z,101357.50
2022-10-13T09:12:37.616Z,101351.22
2022-10-13T09:15:14.460Z,101357.31
2022-10-13T09:17:42.585Z,101354.34
2022-10-13T09:20:27.812Z,101349.44
2022-10-13T09:23:22.732Z,101349.63
2022-10-13T09:25:54.241Z,101357.47
2022-10-13T09:28:29.697Z,101351.13
2022-10-13T09:31:28.030Z,101350.81
2022-10-13T09:34:22.652Z,101351.78
2022-10-13T09:37:06.789Z,101351.44
2022-10-13T09:39:34.983Z,101345.72
2022-10-13T09:42:32.790Z,101349.78
2022-10-13T09:45:15.498Z,101354.22
2022-10-13T09:48:13.012Z,101348.28
2022-10-13T09:50:53.574Z,101356.34
2022-10-13T09:53:40.675Z,101358.00
2022-10-13T09:56:28.882Z,101359.78
2022-10-13T09:59:33.619Z,101358.13
2022-10-13T10:02:26.599Z,101356.19
2022-10-13T10:05:05.983Z,101347.31
2022-10-13T10:07:33.893Z,101354.00
2022-10-13T10:10:22.948Z,101357.91
2022-10-13T10:12:51.494Z,101356.38
2022-10-13T10:15:39.990Z,101355.38
2022-10-13T10:18:42.398Z,101346.84
2022-10-13T10:21:31.429Z,101349.53
2022-10-13T10:24:27.783Z,101352.56
2022-10-13T10:27:24.499Z,101347.50
2022-10-13T10:30:05.121Z,101334.88
2022-10-13T10:33:11.739Z,101334.34
2022-10-13T10:35:52.145Z,101329.53
2022-10-13T10:39:07.580Z,101337.25
2022-10-13T10:42:15.925Z,101324.84
2022-10-13T10:44:50.971Z,101326.88
2022-10-13T10:47:48.787Z,101310.50
2022-10-13T10:50:19.185Z,101313.81
2022-10-13T10:53:18.850Z,101311.06
2022-10-13T10:56:29.580Z,101298.50
2022-10-13T10:59:55.344Z,101293.91
2022-10-13T11:02:52.113Z,101291.47
2022-10-13T11:05:20.093Z,101291.72
2022-10-13T11:07:47.118Z,101279.91
2022-10-13T11:10:14.079Z,101284.50
2022-10-13T11:12:51.076Z,101286.50
2022-10-13T11:15:42.405Z,101279.38
2022-10-13T11:18:59.080Z,101274.59
2022-10-13T11:21:26.269Z,101272.75
2022-10-13T11:23:54.801Z,101273.19
2022-10-13T11:26:26.056Z,101276.16
2022-10-13T11:28:53.493Z,101270.88
2022-10-13T11:31:47.447Z,101273.13
2022-10-13T11:34:32.118Z,101263.44
2022-10-13T11:37:03.206Z,101258.88
2022-10-13T11:40:23.486Z,101257.16
2022-10-13T11:43:55.246Z,101250.88
2022-10-13T11:47:00.217Z,101254.00
2022-10-13T11:49:45.691Z,101254.34
2022-10-13T11:53:10.755Z,101236.94
2022-10-13T11:55:57.999Z,101235.13
2022-10-13T11:58:30.270Z,101229.53
2022-10-13T12:01:19.255Z,101217.94
2022-10-13T12:03:47.826Z,101221.66
2022-10-13T12:06:34.229Z,101225.75
2022-10-13T12:09:20.977Z,101213.88
2022-10-13T12:12:15.447Z,101217.59
2022-10-13T12:14:50.754Z,101217.72
2022-10-13T12:17:27.459Z,101219.09
2022-10-13T12:20:01.834Z,101213.66
2022-10-13T12:22:30.239Z,101210.13
2022-10-13T12:25:01.062Z,101212.78
2022-10-13T12:27:39.842Z,101211.13
2022-10-13T12:30:24.672Z,101216.81
2022-10-13T12:32:59.473Z,101220.50
2022-10-13T12:35:34.187Z,101215.78
2022-10-13T12:38:19.590Z,101212.16
2022-10-13T12:40:51.678Z,101216.88
2022-10-13T12:43:25.883Z,101219.47
2022-10-13T12:45:53.656Z,101217.38
2022-10-13T12:48:35.027Z,101220.88
2022-10-13T12:51:24.597Z,101221.44
2022-10-13T12:53:51.814Z,101218.41
2022-10-13T12:56:31.889Z,101216.22
2022-10-13T12:59:01.051Z,101218.56
2022-10-13T13:01:35.252Z,101211.41
2022-10-13T13:04:41.246Z,101213.16
2022-10-13T13:07:37.561Z,101207.22
2022-10-13T13:10:19.662Z,101212.84
2022-10-13T13:12:51.012Z,101217.63
2022-10-13T13:15:41.764Z,101215.16
2022-10-13T13:18:27.011Z,101207.22
2022-10-13T13:20:55.000Z,101220.97
2022-10-13T13:23:23.726Z,101209.09
2022-10-13T13:26:03.291Z,101212.56
2022-10-13T13:28:32.985Z,101206.28
2022-10-13T13:31:00.484Z,101212.59
2022-10-13T13:33:27.575Z,101208.75
2022-10-13T13:35:55.071Z,101200.56
2022-10-13T13:38:22.200Z,101200.94
2022-10-13T13:40:49.229Z,101188.91
2022-10-13T13:43:16.171Z,101197.44
2022-10-13T13:45:45.079Z,101191.38
2022-10-13T13:48:13.391Z,101189.84
2022-10-13T13:50:40.963Z,101190.78
2022-10-13T13:53:08.083Z,101184.25
2022-10-13T13:55:35.962Z,101182.72
2022-10-13T13:58:02.976Z,101187.28
2022-10-13T14:00:30.176Z,101183.25
2022-10-13T14:02:58.391Z,101188.84
2022-10-13T14:05:25.776Z,101183.00
2022-10-13T14:07:58.119Z,101175.59
2022-10-13T14:10:26.859Z,101166.50
2022-10-13T14:12:54.177Z,101175.63
2022-10-13T14:15:23.425Z,101164.84
2022-10-13T14:17:54.795Z,101160.78
2022-10-13T14:20:23.002Z,101157.53
2022-10-13T14:22:50.655Z,101161.66
2022-10-13T14:25:17.796Z,101160.50
2022-10-13T14:27:45.908Z,101153.97
2022-10-13T14:30:15.020Z,101151.19
2022-10-13T14:32:42.320Z,101155.53
2022-10-13T14:35:09.525Z,101160.56
2022-10-13T14:37:36.805Z,101160.19
2022-10-13T14:40:04.769Z,101166.78
2022-10-13T14:42:31.661Z,101156.63
2022-10-13T14:44:58.619Z,101162.91
2022-10-13T14:47:25.733Z,101155.78
2022-10-13T14:49:52.728Z,101162.19
2022-10-13T14:52:19.787Z,101161.38
2022-10-13T14:54:46.761Z,101149.84
2022-10-13T14:57:16.166Z,101151.25
2022-10-13T14:59:44.592Z,101154.50
2022-10-13T15:02:13.288Z,101148.31
2022-10-13T15:04:40.676Z,101146.94
2022-10-13T15:07:07.874Z,101145.31
2022-10-13T15:09:52.228Z,101140.88
2022-10-13T15:12:23.038Z,101145.38
2022-10-13T15:14:50.245Z,101142.66
2022-10-13T15:17:17.199Z,101149.25
2022-10-13T15:19:44.139Z,101152.53
2022-10-13T15:22:11.069Z,101150.91
2022-10-13T15:24:37.998Z,101146.28
2022-10-13T15:27:04.935Z,101151.53
2022-10-13T15:29:31.935Z,101152.94
2022-10-13T15:32:18.056Z,101141.72
2022-10-13T15:34:45.879Z,101143.75
2022-10-13T15:37:13.347Z,101156.63
2022-10-13T15:39:40.265Z,101152.38
2022-10-13T15:42:12.708Z,101144.38
2022-10-13T15:45:08.295Z,101151.47
2022-10-13T15:47:26.994Z,101145.91
2022-10-13T15:49:54.388Z,101144.09
2022-10-13T15:52:21.579Z,101148.22
2022-10-13T15:54:51.523Z,101145.28
2022-10-13T15:57:18.893Z,101140.03
2022-10-13T15:59:45.910Z,101148.22
2022-10-13T16:02:12.965Z,101135.78
2022-10-13T16:04:40.348Z,101140.38
2022-10-13T16:07:07.333Z,101145.66
2022-10-13T16:09:34.526Z,101141.72
2022-10-13T16:12:01.917Z,101139.09
2022-10-13T16:14:28.992Z,101152.53
2022-10-13T16:16:58.541Z,101145.31
2022-10-13T16:19:25.598Z,101147.75
2022-10-13T16:21:52.830Z,101140.84
2022-10-13T16:24:19.935Z,101136.44
2022-10-13T16:26:46.896Z,101137.75
2022-10-13T16:29:13.882Z,101143.44
2022-10-13T16:31:40.956Z,101135.72
2022-10-13T16:34:07.927Z,101136.53
2022-10-13T16:36:34.920Z,101134.34
2022-10-13T16:39:02.004Z,101136.28
2022-10-13T16:41:29.056Z,101135.94
2022-10-13T16:43:56.065Z,101131.97
2022-10-13T16:46:23.114Z,101133.25
2022-10-13T16:48:50.240Z,101139.47
2022-10-13T16:51:26.371Z,101139.91
2022-10-13T16:54:03.915Z,101135.00
2022-10-13T16:56:32.270Z,101136.75
2022-10-13T16:59:06.793Z,101144.41
2022-10-13T17:01:36.500Z,101141.47
2022-10-13T17:04:04.986Z,101139.16
2022-10-13T17:06:32.911Z,101145.81
2022-10-13T17:09:03.411Z,101139.63
2022-10-13T17:11:34.812Z,101137.19
2022-10-13T17:14:02.405Z,101143.69
2022-10-13T17:16:31.383Z,101135.78
2022-10-13T17:18:58.483Z,101145.25
2022-10-13T17:21:25.453Z,101139.72
2022-10-13T17:23:54.852Z,101141.47
2022-10-13T17:26:21.821Z,101134.09
2022-10-13T17:28:49.005Z,101132.13
2022-10-13T17:31:23.815Z,101132.75
2022-10-13T17:33:52.956Z,101129.78
2022-10-13T17:36:28.128Z,101133.38
2022-10-13T17:39:01.594Z,101133.50
2022-10-13T17:41:28.520Z,101134.47
2022-10-13T17:43:55.559Z,101133.25
2022-10-13T17:46:36.701Z,101126.69
2022-10-13T17:49:07.733Z,101132.03
2022-10-13T17:51:35.142Z,101138.84
2022-10-13T17:54:02.232Z,101137.00
2022-10-13T17:56:30.086Z,101132.72
2022-10-13T17:58:57.396Z,101128.41
2022-10-13T18:01:34.894Z,101129.88
2022-10-13T18:04:11.298Z,101131.44
2022-10-13T18:06:44.055Z,101132.47
2022-10-13T18:09:23.314Z,101130.00
2022-10-13T18:11:52.397Z,101130.13
2022-10-13T18:14:25.297Z,101127.47
2022-10-13T18:16:53.446Z,101127.38
2022-10-13T18:19:22.394Z,101127.00
2022-10-13T18:21:50.707Z,101132.63
2022-10-13T18:24:17.820Z,101135.72
2022-10-13T18:26:46.307Z,101123.09
2022-10-13T18:29:14.087Z,101117.63
2022-10-13T18:31:42.803Z,101118.78
2022-10-13T18:34:17.134Z,101124.31
2022-10-13T18:36:52.872Z,101117.13
2022-10-13T18:39:29.021Z,101119.28
2022-10-13T18:41:57.953Z,101120.94
2022-10-13T18:44:25.256Z,101122.06
2022-10-13T18:46:56.375Z,101115.50
2022-10-13T18:49:31.115Z,101113.34
2022-10-13T18:52:00.702Z,101116.63
2022-10-13T18:54:30.237Z,101115.00
2022-10-13T18:56:57.574Z,101111.72
2022-10-13T18:59:24.736Z,101120.31
2022-10-13T19:01:51.923Z,101117.03
2022-10-13T19:04:19.082Z,101116.50
2022-10-13T19:06:46.585Z,101104.41
2022-10-13T19:09:17.512Z,101111.91
2022-10-13T19:11:44.663Z,101112.53
2022-10-13T19:14:13.913Z,101111.00
2022-10-13T19:16:44.221Z,101111.91
2022-10-13T19:19:12.668Z,101105.88
2022-10-13T19:21:41.130Z,101100.63
2022-10-13T19:24:10.055Z,101102.56
2022-10-13T19:26:38.532Z,101097.34
2022-10-13T19:29:13.960Z,101094.56
2022-10-13T19:31:43.367Z,101092.91
2022-10-13T19:34:13.616Z,101089.16
2022-10-13T19:36:46.168Z,101095.28
2022-10-13T19:39:22.948Z,101101.75
2022-10-13T19:41:54.860Z,101094.66
2022-10-13T19:44:24.792Z,101097.19
2022-10-13T19:46:53.676Z,101093.41
2022-10-13T19:49:26.037Z,101088.19
2022-10-13T19:51:54.217Z,101094.31
2022-10-13T19:54:22.345Z,101103.22
2022-10-13T19:56:50.978Z,101095.81
2022-10-13T19:59:19.163Z,101094.97
2022-10-13T20:01:47.295Z,101095.81
2022-10-13T20:04:18.684Z,101102.25
2022-10-13T20:06:47.474Z,101097.34
2022-10-13T20:09:15.406Z,101095.47
2022-10-13T20:11:47.068Z,101096.06
2022-10-13T20:14:15.022Z,101101.47
2022-10-13T20:16:42.439Z,101102.09
2022-10-13T20:19:16.267Z,101108.72
2022-10-13T20:21:43.226Z,101096.84
2022-10-13T20:24:10.217Z,101100.25
2022-10-13T20:26:37.600Z,101100.00
2022-10-13T20:29:04.646Z,101099.25
2022-10-13T20:31:31.725Z,101101.50
2022-10-13T20:33:59.607Z,101097.13
2022-10-13T20:36:28.262Z,101095.78
2022-10-13T20:38:55.641Z,101093.06
2022-10-13T20:41:28.666Z,101097.78
2022-10-13T20:44:00.310Z,101088.75
2022-10-13T20:46:27.890Z,101089.34
2022-10-13T20:49:10.509Z,101088.03
2022-10-13T20:51:38.892Z,101090.03
2022-10-13T20:54:06.257Z,101086.75
2022-10-13T20:56:34.075Z,101090.56
2022-10-13T20:59:14.616Z,101093.31
2022-10-13T21:01:42.362Z,101092.78
2022-10-13T21:04:09.805Z,101087.03
2022-10-13T21:06:37.489Z,101092.28
2022-10-13T21:09:07.633Z,101088.09
2022-10-13T21:11:36.307Z,101091.97
2022-10-13T21:14:06.853Z,101102.81
2022-10-13T21:16:35.056Z,101098.38
2022-10-13T21:19:03.666Z,101093.38
2022-10-13T21:21:34.821Z,101098.91
2022-10-13T21:24:07.433Z,101102.00
2022-10-13T21:26:36.080Z,101098.19
2022-10-13T21:29:04.002Z,101095.41
2022-10-13T21:31:31.366Z,101089.38
2022-10-13T21:33:58.586Z,101092.72
2022-10-13T21:36:32.445Z,101095.56
2022-10-13T21:39:05.338Z,101096.47
2022-10-13T21:41:32.331Z,101097.03
2022-10-13T21:43:59.668Z,101094.06
2022-10-13T21:46:31.785Z,101097.13
2022-10-13T21:49:03.707Z,101105.47
2022-10-13T21:51:39.354Z,101101.06
2022-10-13T21:54:13.480Z,101094.19
2022-10-13T21:56:42.465Z,101092.84
2022-10-13T21:59:13.412Z,101100.09
2022-10-13T22:01:41.731Z,101102.63
2022-10-13T22:04:13.971Z,101096.56
2022-10-13T22:06:41.119Z,101093.28
2022-10-13T22:09:08.366Z,101094.38
2022-10-13T22:11:39.396Z,101089.56
2022-10-13T22:14:07.925Z,101096.00
2022-10-13T22:16:55.117Z,101101.88
2022-10-13T22:19:23.137Z,101097.25
2022-10-13T22:21:51.244Z,101098.94
2022-10-13T22:24:21.909Z,101097.88
2022-10-13T22:26:50.698Z,101093.47
2022-10-13T22:29:24.092Z,101092.72
2022-10-13T22:31:57.464Z,101098.50
2022-10-13T22:34:25.079Z,101089.41
2022-10-13T22:36:52.498Z,101089.41
2022-10-13T22:39:19.463Z,101085.81
2022-10-13T22:41:46.836Z,101083.06
2022-10-13T22:44:14.909Z,101081.41
2022-10-13T22:46:41.850Z,101081.19
2022-10-13T22:49:11.226Z,101085.88
2022-10-13T22:51:38.373Z,101080.44
2022-10-13T22:54:06.787Z,101083.72
2022-10-13T22:56:35.380Z,101085.09
2022-10-13T22:59:08.752Z,101081.28
2022-10-13T23:01:37.200Z,101067.81
2022-10-13T23:04:04.943Z,101075.63
2022-10-13T23:06:35.558Z,101069.59
2022-10-13T23:09:07.911Z,101069.59
2022-10-13T23:11:35.087Z,101072.38
2022-10-13T23:14:02.973Z,101071.56
2022-10-13T23:16:31.500Z,101070.22
2022-10-13T23:18:58.787Z,101080.19
2022-10-13T23:21:29.637Z,101079.09
2022-10-13T23:24:06.315Z,101082.69
2022-10-13T23:26:35.748Z,101083.81
2022-10-13T23:29:05.162Z,101077.50
2022-10-13T23:31:32.433Z,101070.03
2022-10-13T23:33:59.643Z,101068.69
2022-10-13T23:36:32.153Z,101062.84
2022-10-13T23:39:07.159Z,101068.69
2022-10-13T23:41:34.853Z,101070.59
2022-10-13T23:44:01.869Z,101059.34
2022-10-13T23:46:29.083Z,101058.28
2022-10-13T23:48:56.854Z,101066.56
2022-10-13T23:51:26.553Z,101064.41
2022-10-13T23:53:55.152Z,101062.47
2022-10-13T23:56:23.530Z,101069.09
2022-10-13T23:58:51.400Z,101071.84
